Time;durP1;ratioP1;P1;durP2;ratioP2;P2;SDS_P1;SDS_P2;PMS_P1;PMS_P2;Temp;Humidity;BMP_temperature;BMP_pressure;BME280_temperature;BME280_humidity;BME280_pressure;Samples;Min_cycle;Max_cycle;Signal;HPM_P1;HPM_P2
2022/01/27 00:00:32;;;;;;;33.10;18.65;;;;;;;;;;5088303;28;20204;-82
2022/01/27 00:05:27;;;;;;;32.05;19.50;;;;;;;;;;5088032;28;20195;-82
2022/01/27 00:08:15;;;;;;;29.02;18.38;;;;;;;;;;5082317;28;20247;-82
2022/01/27 00:11:08;;;;;;;30.38;17.90;;;;;;;;;;5083418;28;20184;-81
2022/01/27 00:13:43;;;;;;;30.15;17.88;;;;;;;;;;5087092;28;20202;-82
2022/01/27 00:18:43;;;;;;;30.42;19.27;;;;;;;;;;5101190;28;20199;-81
2022/01/27 00:21:09;;;;;;;35.97;19.80;;;;;;;;;;5091603;28;20195;-81
2022/01/27 00:23:35;;;;;;;34.25;18.52;;;;;;;;;;5092372;28;20177;-82
2022/01/27 00:26:01;;;;;;;32.17;19.10;;;;;;;;;;5091768;28;20187;-82
2022/01/27 00:28:27;;;;;;;33.50;20.60;;;;;;;;;;5103173;28;20196;-82
2022/01/27 00:30:54;;;;;;;31.80;18.90;;;;;;;;;;5083427;28;20180;-82
2022/01/27 00:33:20;;;;;;;33.20;18.92;;;;;;;;;;5074042;28;20272;-82
2022/01/27 00:35:46;;;;;;;32.43;19.37;;;;;;;;;;5082036;28;20245;-81
2022/01/27 00:38:12;;;;;;;30.60;17.88;;;;;;;;;;5087923;28;20474;-82
2022/01/27 00:40:38;;;;;;;31.38;18.55;;;;;;;;;;5087741;28;20214;-81
2022/01/27 00:43:04;;;;;;;31.00;19.05;;;;;;;;;;5089656;28;20172;-82
2022/01/27 00:45:32;;;;;;;28.73;18.05;;;;;;;;;;5103583;28;20191;-82
2022/01/27 00:48:02;;;;;;;34.70;18.92;;;;;;;;;;5095834;28;20184;-81
2022/01/27 00:50:28;;;;;;;28.77;17.35;;;;;;;;;;5092754;28;20199;-82
2022/01/27 00:52:56;;;;;;;29.08;19.25;;;;;;;;;;5090334;28;20191;-81
2022/01/27 00:55:25;;;;;;;33.55;18.33;;;;;;;;;;5101446;28;20171;-81
2022/01/27 01:00:23;;;;;;;32.03;19.15;;;;;;;;;;5091875;28;20189;-81
2022/01/27 01:07:52;;;;;;;40.67;19.70;;;;;;;;;;5088821;28;20248;-82
2022/01/27 01:15:49;;;;;;;39.33;20.55;;;;;;;;;;5090464;28;20242;-81
2022/01/27 01:33:58;;;;;;;35.92;21.90;;;;;;;;;;5090801;28;20177;-82
2022/01/27 01:36:45;;;;;;;47.22;20.35;;;;;;;;;;5090391;28;20210;-81
2022/01/27 01:39:12;;;;;;;44.45;24.33;;;;;;;;;;5092291;28;20239;-82
2022/01/27 01:41:38;;;;;;;38.47;22.00;;;;;;;;;;5091725;28;20540;-81
2022/01/27 01:44:04;;;;;;;40.92;21.45;;;;;;;;;;5092140;28;20203;-82
2022/01/27 01:46:31;;;;;;;42.15;20.38;;;;;;;;;;5089093;28;20181;-81
2022/01/27 01:48:57;;;;;;;39.88;21.42;;;;;;;;;;5104158;28;20182;-81
2022/01/27 01:51:27;;;;;;;47.53;23.98;;;;;;;;;;5095062;28;20192;-81
2022/01/27 01:53:54;;;;;;;31.63;18.65;;;;;;;;;;5092343;28;20184;-82
2022/01/27 01:56:20;;;;;;;44.58;23.88;;;;;;;;;;5092555;28;20188;-82
2022/01/27 01:58:46;;;;;;;34.92;19.45;;;;;;;;;;5089182;28;20204;-81
2022/01/27 02:01:12;;;;;;;36.92;20.90;;;;;;;;;;5087998;28;20269;-82
2022/01/27 02:03:38;;;;;;;34.03;20.95;;;;;;;;;;5091323;28;20221;-82
2022/01/27 02:06:05;;;;;;;40.30;20.67;;;;;;;;;;5089605;28;20192;-82
2022/01/27 02:08:45;;;;;;;40.25;23.75;;;;;;;;;;5090174;28;20713;-81
2022/01/27 02:19:27;;;;;;;41.85;22.17;;;;;;;;;;5086445;28;20226;-81
2022/01/27 02:21:54;;;;;;;52.85;23.73;;;;;;;;;;5102963;28;20192;-82
2022/01/27 02:24:22;;;;;;;41.25;20.50;;;;;;;;;;5092848;28;20180;-82
2022/01/27 02:26:49;;;;;;;41.92;23.02;;;;;;;;;;5091479;28;20184;-81
2022/01/27 02:29:16;;;;;;;52.00;25.35;;;;;;;;;;5090176;28;20175;-82
2022/01/27 02:31:42;;;;;;;43.33;24.15;;;;;;;;;;5085896;28;20212;-82
2022/01/27 02:34:08;;;;;;;43.28;22.95;;;;;;;;;;5086910;28;20180;-81
2022/01/27 02:36:34;;;;;;;47.95;22.73;;;;;;;;;;5100183;28;20225;-82
2022/01/27 02:39:00;;;;;;;49.25;22.83;;;;;;;;;;5074044;28;20212;-82
2022/01/27 02:41:28;;;;;;;33.83;18.63;;;;;;;;;;5053984;28;20230;-81
2022/01/27 02:43:57;;;;;;;40.53;20.70;;;;;;;;;;5048834;28;20637;-82
2022/01/27 02:46:30;;;;;;;43.65;21.38;;;;;;;;;;5055009;28;20181;-81
2022/01/27 02:48:56;;;;;;;41.85;22.33;;;;;;;;;;5066123;28;20184;-81
2022/01/27 02:51:22;;;;;;;44.03;23.30;;;;;;;;;;5054495;28;20194;-81
2022/01/27 02:53:48;;;;;;;46.33;23.90;;;;;;;;;;5069349;28;20646;-81
2022/01/27 02:56:14;;;;;;;51.55;22.88;;;;;;;;;;5054029;28;20455;-81
2022/01/27 02:58:40;;;;;;;38.80;21.88;;;;;;;;;;5049818;28;20196;-81
2022/01/27 03:01:06;;;;;;;38.47;23.40;;;;;;;;;;5067725;28;20212;-82
2022/01/27 03:03:32;;;;;;;43.08;20.98;;;;;;;;;;5060076;28;20198;-81
2022/01/27 03:05:58;;;;;;;45.10;22.25;;;;;;;;;;5068637;28;20219;-82
2022/01/27 03:08:24;;;;;;;45.17;22.98;;;;;;;;;;5053804;28;20180;-81
2022/01/27 03:10:53;;;;;;;40.35;24.10;;;;;;;;;;5077307;28;20299;-81
2022/01/27 03:13:19;;;;;;;46.53;22.83;;;;;;;;;;5064667;28;20184;-81
2022/01/27 03:15:45;;;;;;;45.60;21.75;;;;;;;;;;5078949;28;20455;-81
2022/01/27 03:18:11;;;;;;;51.10;23.85;;;;;;;;;;5055558;28;20189;-82
2022/01/27 03:20:39;;;;;;;51.00;23.48;;;;;;;;;;5053251;28;20191;-81
2022/01/27 03:23:06;;;;;;;47.53;26.02;;;;;;;;;;5053199;28;20192;-82
2022/01/27 03:25:32;;;;;;;41.00;24.30;;;;;;;;;;5048804;28;20177;-81
2022/01/27 03:27:59;;;;;;;39.25;20.70;;;;;;;;;;5068112;28;20181;-82
2022/01/27 03:30:25;;;;;;;35.38;21.25;;;;;;;;;;5053612;28;20173;-82
2022/01/27 03:32:51;;;;;;;43.97;25.95;;;;;;;;;;5053524;28;20195;-83
2022/01/27 03:35:17;;;;;;;39.38;21.50;;;;;;;;;;5077936;28;20237;-83
2022/01/27 03:37:43;;;;;;;45.83;24.33;;;;;;;;;;5068162;28;20380;-82
2022/01/27 03:40:09;;;;;;;49.55;24.30;;;;;;;;;;5085285;28;20236;-82
2022/01/27 03:42:45;;;;;;;38.05;21.48;;;;;;;;;;5100754;28;20203;-83
2022/01/27 03:45:12;;;;;;;43.80;22.00;;;;;;;;;;5094622;28;20233;-83
2022/01/27 03:47:38;;;;;;;36.63;20.73;;;;;;;;;;5094941;28;20196;-81
2022/01/27 03:50:04;;;;;;;40.50;21.13;;;;;;;;;;5089498;28;20191;-83
2022/01/27 03:52:30;;;;;;;39.35;19.80;;;;;;;;;;5083487;28;20188;-82
2022/01/27 03:54:56;;;;;;;37.22;20.05;;;;;;;;;;5087895;28;20177;-81
2022/01/27 03:57:22;;;;;;;36.03;20.63;;;;;;;;;;5090004;28;20262;-82
2022/01/27 03:59:47;;;;;;;41.37;21.73;;;;;;;;;;5087773;28;20472;-81
2022/01/27 04:02:14;;;;;;;38.53;21.27;;;;;;;;;;5089355;28;20677;-82
2022/01/27 04:04:40;;;;;;;42.78;20.02;;;;;;;;;;5095671;28;20526;-81
2022/01/27 04:07:06;;;;;;;34.47;18.70;;;;;;;;;;5085511;28;20180;-82
2022/01/27 04:09:32;;;;;;;38.67;19.75;;;;;;;;;;5094630;28;20172;-82
2022/01/27 04:11:57;;;;;;;39.10;20.27;;;;;;;;;;5092525;28;20214;-81
2022/01/27 04:14:23;;;;;;;37.85;21.73;;;;;;;;;;5090214;28;20188;-82
2022/01/27 04:16:49;;;;;;;39.35;20.50;;;;;;;;;;5085247;28;20196;-82
2022/01/27 04:19:15;;;;;;;35.88;20.30;;;;;;;;;;5084331;28;20192;-82
2022/01/27 04:21:41;;;;;;;37.92;20.27;;;;;;;;;;5088652;28;20181;-82
2022/01/27 04:24:10;;;;;;;37.13;20.98;;;;;;;;;;5089485;28;20202;-82
2022/01/27 04:26:43;;;;;;;40.92;20.10;;;;;;;;;;5089456;28;20229;-80
2022/01/27 04:29:09;;;;;;;37.00;19.00;;;;;;;;;;5088028;28;20191;-83
2022/01/27 04:31:38;;;;;;;34.80;20.08;;;;;;;;;;5092769;28;20183;-82
2022/01/27 04:34:04;;;;;;;34.80;18.25;;;;;;;;;;5098098;28;20263;-81
2022/01/27 04:36:32;;;;;;;33.88;18.50;;;;;;;;;;5087992;28;20294;-83
2022/01/27 04:47:03;;;;;;;31.55;19.02;;;;;;;;;;5083344;28;20191;-80
2022/01/27 04:49:29;;;;;;;35.40;18.63;;;;;;;;;;5082329;28;20645;-82
2022/01/27 04:51:55;;;;;;;34.53;19.02;;;;;;;;;;5087871;28;20207;-81
2022/01/27 04:54:28;;;;;;;41.55;21.15;;;;;;;;;;5087919;28;20200;-81
2022/01/27 04:56:58;;;;;;;37.15;19.20;;;;;;;;;;5092042;28;20186;-81
2022/01/27 04:59:28;;;;;;;35.38;19.13;;;;;;;;;;5099554;28;20200;-81
2022/01/27 05:02:05;;;;;;;33.92;20.05;;;;;;;;;;5074210;28;20544;-81
2022/01/27 05:04:35;;;;;;;39.28;21.13;;;;;;;;;;5101527;28;20187;-80
2022/01/27 05:07:01;;;;;;;36.60;18.50;;;;;;;;;;5088514;28;20271;-81
2022/01/27 05:09:27;;;;;;;38.50;19.23;;;;;;;;;;5099938;28;20196;-80
2022/01/27 05:11:58;;;;;;;32.03;18.13;;;;;;;;;;5105301;28;20188;-80
2022/01/27 05:14:25;;;;;;;35.30;19.58;;;;;;;;;;5099054;28;20195;-81
2022/01/27 05:16:52;;;;;;;32.53;18.60;;;;;;;;;;5081987;28;20647;-80
2022/01/27 05:19:18;;;;;;;36.55;18.40;;;;;;;;;;5090981;28;20199;-81
2022/01/27 05:21:44;;;;;;;33.60;18.58;;;;;;;;;;5085732;28;20197;-80
2022/01/27 05:24:10;;;;;;;37.85;20.48;;;;;;;;;;5074985;28;20180;-81
2022/01/27 05:26:38;;;;;;;43.47;20.90;;;;;;;;;;5072905;28;20181;-83
2022/01/27 05:29:04;;;;;;;34.95;18.58;;;;;;;;;;5074945;28;20183;-83
2022/01/27 05:31:30;;;;;;;35.03;17.13;;;;;;;;;;5101503;28;20184;-82
2022/01/27 05:33:56;;;;;;;39.78;20.90;;;;;;;;;;5090118;28;20178;-80
2022/01/27 05:36:22;;;;;;;32.75;19.60;;;;;;;;;;5072981;28;20195;-81
2022/01/27 05:38:48;;;;;;;40.13;20.70;;;;;;;;;;5092223;28;20227;-80
2022/01/27 05:41:15;;;;;;;35.55;19.75;;;;;;;;;;5090899;28;20179;-81
2022/01/27 05:43:41;;;;;;;35.95;19.27;;;;;;;;;;5086821;28;20177;-82
2022/01/27 05:46:07;;;;;;;33.42;18.45;;;;;;;;;;5103485;28;20437;-80
2022/01/27 05:48:33;;;;;;;38.25;20.75;;;;;;;;;;5091048;28;20184;-81
2022/01/27 05:50:59;;;;;;;35.58;19.45;;;;;;;;;;5090234;28;20317;-82
2022/01/27 05:53:26;;;;;;;37.97;18.88;;;;;;;;;;5088544;28;20184;-82
2022/01/27 05:55:52;;;;;;;36.88;17.95;;;;;;;;;;5071955;28;20200;-80
2022/01/27 05:58:19;;;;;;;37.80;20.02;;;;;;;;;;5102467;28;20203;-80
2022/01/27 06:00:45;;;;;;;35.13;21.80;;;;;;;;;;5073671;28;20169;-82
2022/01/27 06:03:11;;;;;;;36.65;20.90;;;;;;;;;;5072078;28;20709;-82
2022/01/27 06:05:37;;;;;;;39.33;21.73;;;;;;;;;;5089896;28;20213;-81
2022/01/27 06:08:03;;;;;;;36.05;19.17;;;;;;;;;;5089947;28;20196;-80
2022/01/27 06:10:29;;;;;;;31.70;17.65;;;;;;;;;;5101552;28;20576;-80
2022/01/27 06:12:58;;;;;;;34.85;20.50;;;;;;;;;;5085269;28;20229;-81
2022/01/27 06:15:26;;;;;;;37.13;18.85;;;;;;;;;;5100164;28;20183;-80
2022/01/27 06:17:52;;;;;;;35.78;20.25;;;;;;;;;;5095036;28;20184;-82
2022/01/27 06:20:19;;;;;;;33.40;17.30;;;;;;;;;;5068361;28;20205;-80
2022/01/27 06:22:45;;;;;;;33.20;19.55;;;;;;;;;;5079599;28;20184;-80
2022/01/27 06:25:12;;;;;;;38.15;19.60;;;;;;;;;;5102376;28;20175;-82
2022/01/27 06:27:38;;;;;;;35.08;19.50;;;;;;;;;;5085429;28;20198;-82
2022/01/27 06:30:05;;;;;;;33.92;17.75;;;;;;;;;;5082647;28;20184;-80
2022/01/27 06:32:31;;;;;;;39.30;21.98;;;;;;;;;;5079466;28;20184;-80
2022/01/27 06:34:57;;;;;;;34.58;18.55;;;;;;;;;;5080304;28;20188;-80
2022/01/27 06:37:23;;;;;;;34.72;20.02;;;;;;;;;;5100773;28;20237;-82
2022/01/27 06:39:49;;;;;;;31.05;18.27;;;;;;;;;;5089116;28;20212;-80
2022/01/27 06:42:15;;;;;;;34.20;17.80;;;;;;;;;;5073865;28;20176;-80
2022/01/27 06:44:41;;;;;;;35.53;20.23;;;;;;;;;;5091148;28;20199;-81
2022/01/27 06:47:07;;;;;;;33.58;18.05;;;;;;;;;;5083593;28;20259;-81
2022/01/27 06:49:33;;;;;;;43.97;19.80;;;;;;;;;;5084384;28;20187;-79
2022/01/27 06:51:59;;;;;;;33.47;16.63;;;;;;;;;;5099529;28;20205;-85
2022/01/27 06:54:25;;;;;;;29.93;18.10;;;;;;;;;;5077232;28;20227;-83
2022/01/27 06:56:51;;;;;;;34.85;17.73;;;;;;;;;;5081620;28;20438;-85
2022/01/27 06:59:17;;;;;;;30.25;18.83;;;;;;;;;;5070061;28;20204;-87
2022/01/27 07:01:43;;;;;;;31.05;18.25;;;;;;;;;;5093705;28;20205;-84
2022/01/27 07:04:09;;;;;;;31.90;17.90;;;;;;;;;;5095182;28;20176;-84
2022/01/27 07:06:36;;;;;;;29.85;18.77;;;;;;;;;;5096717;28;20225;-85
2022/01/27 07:09:02;;;;;;;30.92;17.73;;;;;;;;;;5079918;28;20184;-85
2022/01/27 07:11:28;;;;;;;27.83;15.13;;;;;;;;;;5083974;28;20176;-85
2022/01/27 07:13:54;;;;;;;31.95;17.77;;;;;;;;;;5099526;28;20225;-86
2022/01/27 07:16:20;;;;;;;32.70;19.25;;;;;;;;;;5074402;28;20176;-84
2022/01/27 07:18:46;;;;;;;28.63;18.65;;;;;;;;;;5078630;28;20681;-82
2022/01/27 07:21:12;;;;;;;30.60;18.30;;;;;;;;;;5074751;28;20207;-85
2022/01/27 07:23:38;;;;;;;34.28;19.67;;;;;;;;;;5091172;28;20417;-84
2022/01/27 07:26:05;;;;;;;37.58;19.33;;;;;;;;;;5073304;28;20164;-85
2022/01/27 07:28:30;;;;;;;33.20;20.38;;;;;;;;;;5074734;28;20191;-84
2022/01/27 07:30:56;;;;;;;33.47;17.77;;;;;;;;;;5078869;28;20180;-83
2022/01/27 07:33:22;;;;;;;38.72;20.33;;;;;;;;;;5076890;28;20433;-83
2022/01/27 07:35:50;;;;;;;36.88;19.30;;;;;;;;;;5080953;28;20533;-86
2022/01/27 07:38:16;;;;;;;32.65;18.77;;;;;;;;;;5091099;28;20310;-84
2022/01/27 07:40:44;;;;;;;31.25;19.23;;;;;;;;;;5092674;28;20199;-86
2022/01/27 07:43:11;;;;;;;36.00;18.80;;;;;;;;;;5098000;28;20217;-84
2022/01/27 07:45:37;;;;;;;31.67;17.50;;;;;;;;;;5098047;28;20453;-84
2022/01/27 07:48:03;;;;;;;34.75;18.13;;;;;;;;;;5090030;28;20521;-85
2022/01/27 07:50:30;;;;;;;39.88;20.83;;;;;;;;;;5094239;28;20236;-81
2022/01/27 07:52:56;;;;;;;32.17;20.52;;;;;;;;;;5088806;28;20229;-85
2022/01/27 07:55:22;;;;;;;34.88;20.35;;;;;;;;;;5083906;28;20172;-84
2022/01/27 07:57:49;;;;;;;34.83;19.33;;;;;;;;;;5095646;28;20211;-85
2022/01/27 08:00:15;;;;;;;33.50;18.83;;;;;;;;;;5096576;28;20264;-83
2022/01/27 08:02:42;;;;;;;33.35;20.15;;;;;;;;;;5084444;28;20196;-85
2022/01/27 08:05:08;;;;;;;34.45;19.45;;;;;;;;;;5089656;28;20179;-84
2022/01/27 08:07:34;;;;;;;40.45;20.13;;;;;;;;;;5090315;28;20187;-83
2022/01/27 08:10:00;;;;;;;28.73;17.77;;;;;;;;;;5090670;28;20172;-84
2022/01/27 08:12:26;;;;;;;31.42;18.73;;;;;;;;;;5091852;28;20206;-85
2022/01/27 08:14:52;;;;;;;33.20;20.75;;;;;;;;;;5093412;28;20192;-87
2022/01/27 08:17:18;;;;;;;30.25;18.50;;;;;;;;;;5095288;28;20191;-86
2022/01/27 08:19:44;;;;;;;31.25;17.83;;;;;;;;;;5092314;28;20207;-84
2022/01/27 08:22:10;;;;;;;31.08;17.45;;;;;;;;;;5089785;28;20181;-84
2022/01/27 08:24:36;;;;;;;35.80;19.25;;;;;;;;;;5090853;28;20188;-84
2022/01/27 08:27:05;;;;;;;30.55;18.10;;;;;;;;;;5093176;28;20180;-84
2022/01/27 08:29:41;;;;;;;32.58;18.20;;;;;;;;;;5086170;28;20200;-84
2022/01/27 08:32:14;;;;;;;36.35;20.27;;;;;;;;;;5098497;28;20263;-84
2022/01/27 08:34:42;;;;;;;38.42;21.30;;;;;;;;;;5096976;28;20185;-83
2022/01/27 08:37:14;;;;;;;34.25;20.30;;;;;;;;;;5093818;28;20223;-83
2022/01/27 08:39:40;;;;;;;35.67;20.13;;;;;;;;;;5099124;28;20208;-84
2022/01/27 08:42:07;;;;;;;37.88;20.30;;;;;;;;;;5097883;28;20180;-83
2022/01/27 08:44:33;;;;;;;32.20;17.55;;;;;;;;;;5102408;28;20184;-85
2022/01/27 08:46:59;;;;;;;34.67;19.95;;;;;;;;;;5099590;28;20176;-86
2022/01/27 08:49:27;;;;;;;35.45;18.20;;;;;;;;;;5101525;28;20329;-87
2022/01/27 08:51:53;;;;;;;31.52;17.13;;;;;;;;;;5089676;28;20177;-85
2022/01/27 08:54:19;;;;;;;33.97;19.05;;;;;;;;;;5091887;28;20191;-84
2022/01/27 08:56:45;;;;;;;33.15;18.88;;;;;;;;;;5093079;28;20192;-84
2022/01/27 08:59:11;;;;;;;39.58;22.13;;;;;;;;;;5101563;28;20211;-85
2022/01/27 09:01:40;;;;;;;30.52;17.75;;;;;;;;;;5095073;28;20211;-86
2022/01/27 09:04:07;;;;;;;30.85;20.42;;;;;;;;;;5100433;28;20182;-84
2022/01/27 09:06:33;;;;;;;33.67;19.95;;;;;;;;;;5099453;28;20199;-87
2022/01/27 09:09:00;;;;;;;34.22;19.15;;;;;;;;;;5093888;28;20187;-84
2022/01/27 09:11:28;;;;;;;28.13;16.48;;;;;;;;;;5096318;28;20187;-86
2022/01/27 09:13:55;;;;;;;37.97;17.38;;;;;;;;;;5088651;28;20186;-86
2022/01/27 09:16:21;;;;;;;32.53;18.95;;;;;;;;;;5097554;28;20182;-86
2022/01/27 09:18:47;;;;;;;29.30;18.02;;;;;;;;;;5095033;28;20246;-86
2022/01/27 09:21:20;;;;;;;30.65;18.58;;;;;;;;;;5093817;28;20184;-89
2022/01/27 09:23:47;;;;;;;33.92;20.92;;;;;;;;;;5094551;28;20177;-83
2022/01/27 09:26:41;;;;;;;32.17;16.83;;;;;;;;;;5091018;28;20176;-84
2022/01/27 09:28:59;;;;;;;34.88;19.00;;;;;;;;;;5097180;28;20188;-84
2022/01/27 09:31:25;;;;;;;37.80;19.00;;;;;;;;;;5101899;28;20286;-86
2022/01/27 09:33:51;;;;;;;33.38;17.75;;;;;;;;;;5105106;28;20185;-83
2022/01/27 09:36:17;;;;;;;37.37;18.13;;;;;;;;;;5098993;28;20192;-86
2022/01/27 09:38:43;;;;;;;29.83;18.15;;;;;;;;;;5097048;28;20474;-86
2022/01/27 09:41:11;;;;;;;30.00;18.67;;;;;;;;;;5092475;28;20266;-86
2022/01/27 09:43:37;;;;;;;38.80;19.58;;;;;;;;;;5087691;28;20445;-88
2022/01/27 09:46:08;;;;;;;30.13;18.98;;;;;;;;;;5089363;28;20173;-83
2022/01/27 09:48:40;;;;;;;31.45;18.25;;;;;;;;;;5090565;28;20181;-90
2022/01/27 09:53:52;;;;;;;32.83;18.77;;;;;;;;;;5091035;28;20195;-85
2022/01/27 09:56:19;;;;;;;38.20;20.02;;;;;;;;;;5092237;28;20175;-87
2022/01/27 09:58:45;;;;;;;32.38;19.33;;;;;;;;;;5099227;28;20231;-89
2022/01/27 10:01:11;;;;;;;31.90;18.55;;;;;;;;;;5089416;28;20171;-85
2022/01/27 10:03:52;;;;;;;34.78;18.75;;;;;;;;;;5100894;28;20184;-84
2022/01/27 10:06:19;;;;;;;28.75;17.75;;;;;;;;;;5097524;28;20224;-83
2022/01/27 10:08:45;;;;;;;35.47;18.15;;;;;;;;;;5092629;28;20245;-86
2022/01/27 10:11:15;;;;;;;31.35;18.40;;;;;;;;;;5087465;28;20191;-85
2022/01/27 10:13:44;;;;;;;32.33;19.52;;;;;;;;;;5097501;28;20248;-87
2022/01/27 10:16:27;;;;;;;29.13;17.95;;;;;;;;;;5096314;28;20180;-85
2022/01/27 10:19:03;;;;;;;25.58;16.23;;;;;;;;;;5092344;28;20255;-84
2022/01/27 10:21:33;;;;;;;28.00;19.02;;;;;;;;;;5095872;28;20891;-92
2022/01/27 10:24:13;;;;;;;34.63;20.63;;;;;;;;;;5093449;28;20172;-85
2022/01/27 10:26:44;;;;;;;33.13;17.58;;;;;;;;;;5095113;28;20191;-87
2022/01/27 10:29:15;;;;;;;28.33;17.45;;;;;;;;;;5096889;28;20195;-84
2022/01/27 10:31:42;;;;;;;28.80;17.75;;;;;;;;;;5094917;28;20192;-83
2022/01/27 10:34:10;;;;;;;33.42;18.20;;;;;;;;;;5093172;28;20172;-81
2022/01/27 10:36:40;;;;;;;30.92;19.42;;;;;;;;;;5098263;28;20182;-84
2022/01/27 10:39:10;;;;;;;25.73;16.50;;;;;;;;;;5073164;28;20342;-85
2022/01/27 10:41:55;;;;;;;28.75;18.95;;;;;;;;;;5057336;28;20184;-87
2022/01/27 10:44:23;;;;;;;31.02;17.67;;;;;;;;;;5070351;28;20186;-87
2022/01/27 10:47:05;;;;;;;31.13;18.73;;;;;;;;;;5049972;28;20181;-85
2022/01/27 10:49:33;;;;;;;30.60;18.70;;;;;;;;;;5054007;28;20181;-86
2022/01/27 10:52:00;;;;;;;32.03;18.60;;;;;;;;;;5069230;28;20723;-87
2022/01/27 10:54:48;;;;;;;25.75;16.48;;;;;;;;;;5054413;28;20238;-85
2022/01/27 10:57:14;;;;;;;28.90;18.80;;;;;;;;;;5053595;28;20196;-84
2022/01/27 10:59:41;;;;;;;35.17;18.27;;;;;;;;;;5054141;28;20209;-86
2022/01/27 11:02:08;;;;;;;34.00;17.52;;;;;;;;;;5054134;28;20180;-84
2022/01/27 11:04:38;;;;;;;25.58;16.90;;;;;;;;;;5064762;28;20196;-87
2022/01/27 11:07:06;;;;;;;28.50;17.65;;;;;;;;;;5062393;28;20187;-86
2022/01/27 11:09:34;;;;;;;32.10;19.27;;;;;;;;;;5063071;28;20661;-82
2022/01/27 11:12:06;;;;;;;30.15;18.17;;;;;;;;;;5055218;28;20189;-84
2022/01/27 11:14:32;;;;;;;35.03;20.48;;;;;;;;;;5071755;28;20176;-85
2022/01/27 11:17:00;;;;;;;33.55;19.85;;;;;;;;;;5061804;28;20188;-85
2022/01/27 11:22:27;;;;;;;27.85;16.42;;;;;;;;;;5068582;28;20180;-87
2022/01/27 11:27:20;;;;;;;31.33;17.95;;;;;;;;;;5069177;28;20194;-88
2022/01/27 11:29:50;;;;;;;27.20;15.57;;;;;;;;;;5058119;28;20649;-88
2022/01/27 11:32:18;;;;;;;28.35;17.25;;;;;;;;;;5079182;28;20184;-85
2022/01/27 11:34:44;;;;;;;27.50;17.63;;;;;;;;;;5063002;28;20207;-86
2022/01/27 11:37:10;;;;;;;29.70;16.77;;;;;;;;;;5067501;28;20298;-88
2022/01/27 11:39:46;;;;;;;26.50;16.23;;;;;;;;;;5090258;28;20199;-87
2022/01/27 11:42:12;;;;;;;27.88;17.20;;;;;;;;;;5101427;28;20179;-85
2022/01/27 11:44:39;;;;;;;30.83;17.50;;;;;;;;;;5099399;28;20215;-86
2022/01/27 11:47:05;;;;;;;27.58;17.58;;;;;;;;;;5099555;28;20535;-87
2022/01/27 11:50:23;;;;;;;30.00;19.20;;;;;;;;;;5085664;28;20190;-85
2022/01/27 11:52:52;;;;;;;32.20;18.85;;;;;;;;;;5056284;28;20492;-85
2022/01/27 11:55:26;;;;;;;26.80;18.00;;;;;;;;;;5056717;28;20188;-85
2022/01/27 11:57:55;;;;;;;27.52;16.77;;;;;;;;;;5043895;28;20198;-83
2022/01/27 12:00:22;;;;;;;28.15;16.65;;;;;;;;;;5056376;28;20213;-84
2022/01/27 12:02:57;;;;;;;30.73;18.33;;;;;;;;;;5054307;28;20196;-85
2022/01/27 12:05:26;;;;;;;27.52;18.15;;;;;;;;;;5047739;28;20233;-82
2022/01/27 12:08:10;;;;;;;31.55;19.25;;;;;;;;;;5050690;28;20181;-85
2022/01/27 12:10:40;;;;;;;28.95;18.15;;;;;;;;;;5039186;28;20219;-85
2022/01/27 12:13:37;;;;;;;29.52;18.10;;;;;;;;;;5048079;28;20651;-82
2022/01/27 12:18:56;;;;;;;30.38;16.95;;;;;;;;;;5064275;28;20200;-85
2022/01/27 12:21:29;;;;;;;31.10;17.75;;;;;;;;;;5036935;28;20272;-85
2022/01/27 12:24:15;;;;;;;30.70;17.52;;;;;;;;;;5087771;28;20188;-85
2022/01/27 12:27:01;;;;;;;26.67;17.70;;;;;;;;;;5103116;28;20434;-88
2022/01/27 12:29:31;;;;;;;24.42;15.75;;;;;;;;;;5089035;28;20207;-85
2022/01/27 12:32:02;;;;;;;22.58;15.30;;;;;;;;;;5092566;28;20187;-85
2022/01/27 12:34:28;;;;;;;27.00;16.55;;;;;;;;;;5087530;28;20215;-82
2022/01/27 12:37:08;;;;;;;23.55;16.65;;;;;;;;;;5104400;28;20791;-84
2022/01/27 12:39:38;;;;;;;30.73;17.67;;;;;;;;;;5097602;28;20221;-84
2022/01/27 12:42:06;;;;;;;23.58;14.93;;;;;;;;;;5091390;28;20360;-82
2022/01/27 12:44:32;;;;;;;24.33;15.23;;;;;;;;;;5088813;28;20616;-84
2022/01/27 12:47:03;;;;;;;23.60;15.13;;;;;;;;;;5088820;28;20176;-83
2022/01/27 12:50:02;;;;;;;25.10;16.55;;;;;;;;;;5087059;28;20188;-84
2022/01/27 12:52:30;;;;;;;22.98;15.63;;;;;;;;;;5096988;28;20200;-84
2022/01/27 12:54:57;;;;;;;24.88;14.57;;;;;;;;;;5093285;28;20208;-85
2022/01/27 12:57:27;;;;;;;28.15;16.10;;;;;;;;;;5100030;28;20176;-88
2022/01/27 12:59:54;;;;;;;24.15;16.05;;;;;;;;;;5093932;28;20231;-85
2022/01/27 13:02:21;;;;;;;27.38;16.20;;;;;;;;;;5093183;28;20172;-85
2022/01/27 13:04:49;;;;;;;26.50;17.73;;;;;;;;;;5089280;28;20606;-86
2022/01/27 13:07:15;;;;;;;25.02;16.60;;;;;;;;;;5097737;28;20176;-82
2022/01/27 13:09:43;;;;;;;27.48;17.05;;;;;;;;;;5090780;28;20187;-85
2022/01/27 13:12:15;;;;;;;25.13;17.65;;;;;;;;;;5092971;28;20184;-85
2022/01/27 13:15:15;;;;;;;25.33;15.10;;;;;;;;;;5091132;28;20211;-89
2022/01/27 13:20:47;;;;;;;25.05;16.85;;;;;;;;;;5054791;28;20190;-79
2022/01/27 13:25:58;;;;;;;24.55;12.98;;;;;;;;;;5062865;28;20219;-84
2022/01/27 13:28:26;;;;;;;18.35;12.00;;;;;;;;;;5045429;28;20248;-86
2022/01/27 13:30:53;;;;;;;19.80;13.70;;;;;;;;;;5063864;28;20177;-87
2022/01/27 13:33:20;;;;;;;22.98;14.73;;;;;;;;;;5045341;28;20193;-88
2022/01/27 13:35:47;;;;;;;18.10;13.05;;;;;;;;;;5061910;28;20196;-81
2022/01/27 13:38:24;;;;;;;22.77;14.85;;;;;;;;;;5046142;28;20223;-87
2022/01/27 13:43:45;;;;;;;25.40;13.32;;;;;;;;;;5062160;28;20191;-89
2022/01/27 13:46:12;;;;;;;19.52;13.60;;;;;;;;;;5061778;28;20191;-84
2022/01/27 13:48:45;;;;;;;22.52;14.32;;;;;;;;;;5063211;28;20263;-86
2022/01/27 13:51:19;;;;;;;19.70;13.35;;;;;;;;;;5044568;28;20201;-84
2022/01/27 13:54:01;;;;;;;22.20;15.02;;;;;;;;;;5045679;28;20226;-82
2022/01/27 13:56:40;;;;;;;22.70;12.38;;;;;;;;;;5067845;28;20243;-88
2022/01/27 13:59:12;;;;;;;20.13;12.02;;;;;;;;;;5095829;28;20275;-87
2022/01/27 14:01:38;;;;;;;28.27;12.70;;;;;;;;;;5100580;28;20637;-82
2022/01/27 14:04:04;;;;;;;21.73;13.35;;;;;;;;;;5089404;28;20173;-79
2022/01/27 14:06:30;;;;;;;19.02;12.45;;;;;;;;;;5090000;28;20191;-86
2022/01/27 14:08:58;;;;;;;21.63;13.45;;;;;;;;;;5092026;28;20219;-86
2022/01/27 14:11:34;;;;;;;23.25;14.40;;;;;;;;;;5091951;28;20190;-84
2022/01/27 14:14:01;;;;;;;20.88;12.88;;;;;;;;;;5089324;28;20221;-85
2022/01/27 14:16:28;;;;;;;23.88;14.85;;;;;;;;;;5088410;28;20211;-84
2022/01/27 14:18:54;;;;;;;17.02;12.10;;;;;;;;;;5091523;28;20231;-83
2022/01/27 14:21:24;;;;;;;20.13;12.68;;;;;;;;;;5089242;28;20563;-84
2022/01/27 14:26:34;;;;;;;21.40;14.18;;;;;;;;;;5088577;28;20247;-84
2022/01/27 14:29:03;;;;;;;23.60;13.05;;;;;;;;;;5088820;28;20186;-84
2022/01/27 14:31:29;;;;;;;23.08;14.43;;;;;;;;;;5086435;28;20207;-83
2022/01/27 14:33:56;;;;;;;21.95;12.30;;;;;;;;;;5103283;28;20691;-85
2022/01/27 14:36:22;;;;;;;28.33;14.30;;;;;;;;;;5092312;28;20196;-86
2022/01/27 14:38:49;;;;;;;20.27;13.18;;;;;;;;;;5091934;28;20220;-87
2022/01/27 14:41:15;;;;;;;20.15;14.35;;;;;;;;;;5089272;28;20181;-85
2022/01/27 14:43:41;;;;;;;26.27;15.20;;;;;;;;;;5086269;28;20180;-82
2022/01/27 14:46:08;;;;;;;18.80;13.10;;;;;;;;;;5087529;28;20172;-85
2022/01/27 14:48:38;;;;;;;24.77;13.73;;;;;;;;;;5089883;28;20271;-83
2022/01/27 14:51:04;;;;;;;21.80;13.10;;;;;;;;;;5090751;28;20195;-83
2022/01/27 14:53:30;;;;;;;22.77;13.82;;;;;;;;;;5090214;28;20176;-83
2022/01/27 14:55:56;;;;;;;29.60;16.02;;;;;;;;;;5089067;28;20244;-83
2022/01/27 14:58:22;;;;;;;22.50;13.85;;;;;;;;;;5092332;28;20206;-84
2022/01/27 15:00:48;;;;;;;23.53;13.80;;;;;;;;;;5098946;28;20179;-84
2022/01/27 15:03:14;;;;;;;22.60;14.75;;;;;;;;;;5087889;28;20504;-84
2022/01/27 15:05:40;;;;;;;25.23;14.73;;;;;;;;;;5094792;28;20656;-83
2022/01/27 15:08:06;;;;;;;19.73;12.33;;;;;;;;;;5096828;28;20442;-82
2022/01/27 15:10:32;;;;;;;27.20;14.70;;;;;;;;;;5096076;28;20476;-83
2022/01/27 15:12:58;;;;;;;21.88;13.77;;;;;;;;;;5100771;28;20179;-86
2022/01/27 15:20:58;;;;;;;19.67;14.52;;;;;;;;;;5094277;28;20203;-89
2022/01/27 15:23:25;;;;;;;22.65;12.95;;;;;;;;;;5092214;28;20191;-87
2022/01/27 15:25:51;;;;;;;19.15;12.13;;;;;;;;;;5092149;28;20176;-87
2022/01/27 15:28:17;;;;;;;19.60;13.65;;;;;;;;;;5095447;28;20610;-87
2022/01/27 15:30:43;;;;;;;22.73;13.73;;;;;;;;;;5089210;28;20173;-86
2022/01/27 15:33:11;;;;;;;25.58;14.23;;;;;;;;;;5092626;28;20267;-84
2022/01/27 15:35:37;;;;;;;25.08;14.85;;;;;;;;;;5096697;28;20190;-88
2022/01/27 15:38:03;;;;;;;20.50;13.10;;;;;;;;;;5089373;28;20224;-84
2022/01/27 15:40:32;;;;;;;23.40;13.30;;;;;;;;;;5088725;28;20271;-83